< < Back
Terminal Aerodrome Forecast


Current Version              Previous Versions:   1  2  3  4  5  6  7  8  9  

Terminal Aerodrome Forecast

747
FTUS42 KFFC 171100
TAFPDK
TAF
KPDK 171127Z 1712/1812 33005KT P6SM FEW030
     FM171600 32008KT P6SM SCT040
     FM180100 33003KT P6SM SKC=



Latest METAR

862
SAUS70 KWBC 172300 RRP
MTRPDK
METAR KPDK 172253Z 28005KT 10SM FEW050 26/15 A2992 RMK AO2 SLP116
T02610150


USA.gov is the U.S. government's official web portal to all federal, state and local government web resources and services.